sensor_id;sensor_type;location;lat;lon;timestamp;P1;durP1;ratioP1;P2;durP2;ratioP2
34230;SDS011;21574;51.538;-0.084;2022-12-11T09:33:00;21.80;;;10.35;;
34230;SDS011;21574;51.538;-0.084;2022-12-11T09:35:26;22.30;;;10.40;;
34230;SDS011;21574;51.538;-0.084;2022-12-11T09:37:51;23.50;;;9.75;;
34230;SDS011;21574;51.538;-0.084;2022-12-11T09:40:17;34.53;;;10.45;;
34230;SDS011;21574;51.538;-0.084;2022-12-11T09:42:51;33.95;;;10.63;;
34230;SDS011;21574;51.538;-0.084;2022-12-11T09:45:24;30.85;;;9.60;;
34230;SDS011;21574;51.538;-0.084;2022-12-11T09:47:51;32.55;;;10.32;;
34230;SDS011;21574;51.538;-0.084;2022-12-11T09:50:26;24.13;;;8.77;;
34230;SDS011;21574;51.538;-0.084;2022-12-11T09:53:03;30.17;;;9.25;;
34230;SDS011;21574;51.538;-0.084;2022-12-11T10:01:11;31.02;;;9.85;;
34230;SDS011;21574;51.538;-0.084;2022-12-11T10:06:29;21.13;;;9.35;;
34230;SDS011;21574;51.538;-0.084;2022-12-11T10:09:02;25.63;;;9.63;;
34230;SDS011;21574;51.538;-0.084;2022-12-11T10:14:38;32.47;;;8.90;;
34230;SDS011;21574;51.538;-0.084;2022-12-11T10:17:26;22.23;;;7.93;;
34230;SDS011;21574;51.538;-0.084;2022-12-11T10:19:55;25.58;;;8.68;;
34230;SDS011;21574;51.538;-0.084;2022-12-11T10:22:26;25.13;;;9.40;;
34230;SDS011;21574;51.538;-0.084;2022-12-11T10:24:55;19.58;;;8.98;;
34230;SDS011;21574;51.538;-0.084;2022-12-11T10:27:32;26.92;;;9.43;;
34230;SDS011;21574;51.538;-0.084;2022-12-11T10:30:15;19.88;;;9.05;;
34230;SDS011;21574;51.538;-0.084;2022-12-11T10:35:35;17.30;;;7.72;;
34230;SDS011;21574;51.538;-0.084;2022-12-11T10:40:39;17.15;;;7.38;;
34230;SDS011;21574;51.538;-0.084;2022-12-11T10:43:07;19.42;;;8.02;;
34230;SDS011;21574;51.538;-0.084;2022-12-11T10:45:34;16.88;;;8.10;;
34230;SDS011;21574;51.538;-0.084;2022-12-11T10:48:02;18.83;;;8.30;;
34230;SDS011;21574;51.538;-0.084;2022-12-11T10:50:34;14.48;;;8.45;;
34230;SDS011;21574;51.538;-0.084;2022-12-11T10:53:00;16.50;;;7.57;;
34230;SDS011;21574;51.538;-0.084;2022-12-11T10:55:27;18.38;;;7.97;;
34230;SDS011;21574;51.538;-0.084;2022-12-11T10:58:14;11.73;;;7.80;;
34230;SDS011;21574;51.538;-0.084;2022-12-11T11:00:43;14.40;;;7.63;;
34230;SDS011;21574;51.538;-0.084;2022-12-11T11:03:22;13.45;;;7.97;;
34230;SDS011;21574;51.538;-0.084;2022-12-11T11:06:00;16.50;;;7.70;;
34230;SDS011;21574;51.538;-0.084;2022-12-11T11:08:36;12.95;;;7.80;;
34230;SDS011;21574;51.538;-0.084;2022-12-11T11:11:52;11.35;;;7.57;;
34230;SDS011;21574;51.538;-0.084;2022-12-11T11:16:34;16.23;;;8.27;;
34230;SDS011;21574;51.538;-0.084;2022-12-11T11:19:02;15.52;;;7.43;;
34230;SDS011;21574;51.538;-0.084;2022-12-11T11:21:28;18.85;;;8.18;;
34230;SDS011;21574;51.538;-0.084;2022-12-11T11:23:55;18.05;;;7.85;;
34230;SDS011;21574;51.538;-0.084;2022-12-11T11:26:21;14.35;;;7.28;;
34230;SDS011;21574;51.538;-0.084;2022-12-11T11:28:49;15.32;;;8.10;;
34230;SDS011;21574;51.538;-0.084;2022-12-11T11:31:20;12.80;;;7.63;;
34230;SDS011;21574;51.538;-0.084;2022-12-11T11:33:56;12.70;;;7.00;;
34230;SDS011;21574;51.538;-0.084;2022-12-11T11:36:25;14.38;;;8.23;;
34230;SDS011;21574;51.538;-0.084;2022-12-11T11:44:26;15.80;;;7.10;;
34230;SDS011;21574;51.538;-0.084;2022-12-11T11:49:48;11.60;;;6.80;;
34230;SDS011;21574;51.538;-0.084;2022-12-11T11:52:36;15.57;;;7.50;;
34230;SDS011;21574;51.538;-0.084;2022-12-11T11:55:13;14.00;;;7.80;;
34230;SDS011;21574;51.538;-0.084;2022-12-11T12:00:48;17.42;;;7.97;;
34230;SDS011;21574;51.538;-0.084;2022-12-11T12:03:17;13.93;;;7.57;;
34230;SDS011;21574;51.538;-0.084;2022-12-11T12:11:12;18.08;;;8.20;;
34230;SDS011;21574;51.538;-0.084;2022-12-11T12:19:02;11.32;;;7.60;;
34230;SDS011;21574;51.538;-0.084;2022-12-11T12:30:15;12.13;;;7.80;;
34230;SDS011;21574;51.538;-0.084;2022-12-11T12:36:36;14.10;;;7.50;;
34230;SDS011;21574;51.538;-0.084;2022-12-11T12:42:17;15.55;;;8.55;;
34230;SDS011;21574;51.538;-0.084;2022-12-11T12:47:35;11.90;;;7.43;;
34230;SDS011;21574;51.538;-0.084;2022-12-11T12:50:02;11.93;;;7.68;;
34230;SDS011;21574;51.538;-0.084;2022-12-11T12:52:36;11.23;;;7.80;;
34230;SDS011;21574;51.538;-0.084;2022-12-11T12:57:49;15.73;;;7.82;;
34230;SDS011;21574;51.538;-0.084;2022-12-11T13:03:13;15.23;;;8.48;;
34230;SDS011;21574;51.538;-0.084;2022-12-11T13:05:55;12.52;;;8.02;;
34230;SDS011;21574;51.538;-0.084;2022-12-11T13:08:30;10.43;;;7.50;;
34230;SDS011;21574;51.538;-0.084;2022-12-11T13:11:06;13.55;;;8.20;;
34230;SDS011;21574;51.538;-0.084;2022-12-11T13:13:35;12.55;;;7.95;;
34230;SDS011;21574;51.538;-0.084;2022-12-11T13:24:12;15.73;;;8.40;;
34230;SDS011;21574;51.538;-0.084;2022-12-11T13:26:39;10.50;;;8.10;;
34230;SDS011;21574;51.538;-0.084;2022-12-11T13:29:05;12.77;;;8.37;;
34230;SDS011;21574;51.538;-0.084;2022-12-11T13:31:55;12.30;;;7.82;;
34230;SDS011;21574;51.538;-0.084;2022-12-11T13:34:36;13.70;;;8.10;;
34230;SDS011;21574;51.538;-0.084;2022-12-11T13:37:05;11.40;;;7.95;;
34230;SDS011;21574;51.538;-0.084;2022-12-11T13:39:45;11.35;;;7.72;;
34230;SDS011;21574;51.538;-0.084;2022-12-11T13:42:46;14.20;;;8.23;;
34230;SDS011;21574;51.538;-0.084;2022-12-11T13:45:36;10.18;;;7.70;;
34230;SDS011;21574;51.538;-0.084;2022-12-11T13:48:06;12.18;;;8.23;;
34230;SDS011;21574;51.538;-0.084;2022-12-11T13:50:49;14.77;;;8.35;;
34230;SDS011;21574;51.538;-0.084;2022-12-11T13:53:16;12.05;;;8.68;;
34230;SDS011;21574;51.538;-0.084;2022-12-11T13:55:43;10.90;;;8.02;;
34230;SDS011;21574;51.538;-0.084;2022-12-11T13:58:14;12.07;;;7.93;;
34230;SDS011;21574;51.538;-0.084;2022-12-11T14:03:42;11.00;;;7.95;;
34230;SDS011;21574;51.538;-0.084;2022-12-11T14:06:32;15.32;;;8.25;;
34230;SDS011;21574;51.538;-0.084;2022-12-11T14:09:00;11.35;;;8.32;;
34230;SDS011;21574;51.538;-0.084;2022-12-11T14:11:39;17.13;;;8.55;;
34230;SDS011;21574;51.538;-0.084;2022-12-11T14:14:07;11.02;;;7.93;;
34230;SDS011;21574;51.538;-0.084;2022-12-11T14:16:48;11.05;;;8.00;;
34230;SDS011;21574;51.538;-0.084;2022-12-11T14:19:16;16.27;;;9.48;;
34230;SDS011;21574;51.538;-0.084;2022-12-11T14:21:53;16.67;;;9.30;;
34230;SDS011;21574;51.538;-0.084;2022-12-11T14:24:20;13.63;;;8.35;;
34230;SDS011;21574;51.538;-0.084;2022-12-11T14:26:49;12.25;;;9.00;;
34230;SDS011;21574;51.538;-0.084;2022-12-11T14:29:22;14.27;;;8.98;;
34230;SDS011;21574;51.538;-0.084;2022-12-11T14:31:49;13.07;;;9.35;;
34230;SDS011;21574;51.538;-0.084;2022-12-11T14:34:23;13.63;;;9.32;;
34230;SDS011;21574;51.538;-0.084;2022-12-11T14:36:51;15.43;;;9.48;;
34230;SDS011;21574;51.538;-0.084;2022-12-11T14:39:23;12.88;;;9.10;;
34230;SDS011;21574;51.538;-0.084;2022-12-11T14:41:57;10.88;;;8.02;;
34230;SDS011;21574;51.538;-0.084;2022-12-11T14:44:44;14.02;;;8.77;;
34230;SDS011;21574;51.538;-0.084;2022-12-11T14:47:15;15.73;;;9.27;;
34230;SDS011;21574;51.538;-0.084;2022-12-11T14:49:47;10.52;;;8.32;;
34230;SDS011;21574;51.538;-0.084;2022-12-11T14:52:34;12.63;;;8.60;;
34230;SDS011;21574;51.538;-0.084;2022-12-11T14:55:07;10.82;;;8.38;;
34230;SDS011;21574;51.538;-0.084;2022-12-11T14:57:43;15.05;;;8.80;;
34230;SDS011;21574;51.538;-0.084;2022-12-11T15:05:23;11.55;;;8.43;;
34230;SDS011;21574;51.538;-0.084;2022-12-11T15:08:32;12.70;;;8.63;;
34230;SDS011;21574;51.538;-0.084;2022-12-11T15:10:42;12.45;;;8.55;;
34230;SDS011;21574;51.538;-0.084;2022-12-11T15:13:23;16.10;;;9.93;;
34230;SDS011;21574;51.538;-0.084;2022-12-11T15:15:49;14.70;;;9.70;;
34230;SDS011;21574;51.538;-0.084;2022-12-11T15:18:35;13.13;;;8.95;;
34230;SDS011;21574;51.538;-0.084;2022-12-11T15:21:05;13.63;;;9.40;;
34230;SDS011;21574;51.538;-0.084;2022-12-11T15:23:38;16.23;;;10.25;;
34230;SDS011;21574;51.538;-0.084;2022-12-11T15:26:16;17.23;;;11.45;;
34230;SDS011;21574;51.538;-0.084;2022-12-11T15:28:42;17.15;;;11.43;;
34230;SDS011;21574;51.538;-0.084;2022-12-11T15:31:22;15.13;;;10.63;;
34230;SDS011;21574;51.538;-0.084;2022-12-11T15:33:49;15.00;;;10.18;;
34230;SDS011;21574;51.538;-0.084;2022-12-11T15:36:25;19.92;;;11.00;;
34230;SDS011;21574;51.538;-0.084;2022-12-11T15:38:54;16.70;;;10.80;;
34230;SDS011;21574;51.538;-0.084;2022-12-11T15:41:20;20.30;;;10.27;;
34230;SDS011;21574;51.538;-0.084;2022-12-11T15:43:50;17.20;;;10.13;;
34230;SDS011;21574;51.538;-0.084;2022-12-11T15:46:18;19.98;;;10.77;;
34230;SDS011;21574;51.538;-0.084;2022-12-11T15:48:43;19.88;;;10.75;;
34230;SDS011;21574;51.538;-0.084;2022-12-11T15:51:09;15.05;;;10.32;;
34230;SDS011;21574;51.538;-0.084;2022-12-11T15:53:35;15.05;;;10.43;;
34230;SDS011;21574;51.538;-0.084;2022-12-11T15:56:01;18.48;;;10.65;;
34230;SDS011;21574;51.538;-0.084;2022-12-11T15:58:27;17.67;;;10.15;;
34230;SDS011;21574;51.538;-0.084;2022-12-11T16:00:53;19.98;;;11.05;;
34230;SDS011;21574;51.538;-0.084;2022-12-11T16:03:19;15.27;;;10.45;;
34230;SDS011;21574;51.538;-0.084;2022-12-11T16:05:46;16.35;;;11.02;;
34230;SDS011;21574;51.538;-0.084;2022-12-11T16:08:14;20.83;;;10.85;;
34230;SDS011;21574;51.538;-0.084;2022-12-11T16:10:44;15.73;;;10.70;;
34230;SDS011;21574;51.538;-0.084;2022-12-11T16:13:10;15.23;;;9.88;;
34230;SDS011;21574;51.538;-0.084;2022-12-11T16:15:38;16.33;;;10.88;;
34230;SDS011;21574;51.538;-0.084;2022-12-11T16:18:06;17.23;;;10.68;;
34230;SDS011;21574;51.538;-0.084;2022-12-11T16:20:34;17.05;;;10.25;;
34230;SDS011;21574;51.538;-0.084;2022-12-11T16:23:01;19.40;;;9.63;;
34230;SDS011;21574;51.538;-0.084;2022-12-11T16:25:27;18.88;;;11.02;;
34230;SDS011;21574;51.538;-0.084;2022-12-11T16:27:54;18.27;;;11.20;;
34230;SDS011;21574;51.538;-0.084;2022-12-11T16:30:21;20.80;;;10.57;;
34230;SDS011;21574;51.538;-0.084;2022-12-11T16:32:47;15.07;;;10.83;;
34230;SDS011;21574;51.538;-0.084;2022-12-11T16:35:13;15.57;;;9.63;;
34230;SDS011;21574;51.538;-0.084;2022-12-11T16:37:39;14.27;;;9.73;;
34230;SDS011;21574;51.538;-0.084;2022-12-11T16:40:04;13.80;;;9.90;;
34230;SDS011;21574;51.538;-0.084;2022-12-11T16:42:31;19.63;;;10.10;;
34230;SDS011;21574;51.538;-0.084;2022-12-11T16:45:04;14.65;;;10.30;;
34230;SDS011;21574;51.538;-0.084;2022-12-11T16:47:32;17.27;;;10.50;;
34230;SDS011;21574;51.538;-0.084;2022-12-11T16:49:58;16.40;;;11.15;;
34230;SDS011;21574;51.538;-0.084;2022-12-11T16:52:24;17.20;;;11.20;;
34230;SDS011;21574;51.538;-0.084;2022-12-11T16:54:50;15.30;;;10.77;;
34230;SDS011;21574;51.538;-0.084;2022-12-11T16:57:15;16.67;;;10.82;;
34230;SDS011;21574;51.538;-0.084;2022-12-11T16:59:41;16.42;;;11.30;;
34230;SDS011;21574;51.538;-0.084;2022-12-11T17:02:08;17.58;;;11.02;;
34230;SDS011;21574;51.538;-0.084;2022-12-11T17:04:36;15.95;;;11.15;;
34230;SDS011;21574;51.538;-0.084;2022-12-11T17:07:03;16.80;;;11.52;;
34230;SDS011;21574;51.538;-0.084;2022-12-11T17:09:29;18.23;;;11.55;;
34230;SDS011;21574;51.538;-0.084;2022-12-11T17:11:54;18.20;;;12.43;;
34230;SDS011;21574;51.538;-0.084;2022-12-11T17:14:20;19.30;;;11.93;;
34230;SDS011;21574;51.538;-0.084;2022-12-11T17:16:46;17.20;;;11.73;;
34230;SDS011;21574;51.538;-0.084;2022-12-11T17:19:12;16.88;;;11.45;;
34230;SDS011;21574;51.538;-0.084;2022-12-11T17:21:38;17.75;;;11.77;;
34230;SDS011;21574;51.538;-0.084;2022-12-11T17:24:03;15.38;;;10.77;;
34230;SDS011;21574;51.538;-0.084;2022-12-11T17:26:30;18.38;;;11.57;;
34230;SDS011;21574;51.538;-0.084;2022-12-11T17:28:56;17.55;;;11.45;;
34230;SDS011;21574;51.538;-0.084;2022-12-11T17:31:21;16.40;;;11.00;;
34230;SDS011;21574;51.538;-0.084;2022-12-11T17:33:47;17.40;;;11.27;;
34230;SDS011;21574;51.538;-0.084;2022-12-11T17:36:15;21.10;;;10.83;;
34230;SDS011;21574;51.538;-0.084;2022-12-11T17:38:42;19.17;;;10.82;;
34230;SDS011;21574;51.538;-0.084;2022-12-11T17:41:09;19.17;;;10.43;;
34230;SDS011;21574;51.538;-0.084;2022-12-11T17:43:36;18.00;;;10.07;;
34230;SDS011;21574;51.538;-0.084;2022-12-11T17:46:02;17.63;;;10.60;;
34230;SDS011;21574;51.538;-0.084;2022-12-11T17:48:28;18.15;;;10.50;;
34230;SDS011;21574;51.538;-0.084;2022-12-11T17:50:54;16.02;;;10.43;;
34230;SDS011;21574;51.538;-0.084;2022-12-11T17:53:20;15.63;;;10.55;;
34230;SDS011;21574;51.538;-0.084;2022-12-11T17:55:47;14.20;;;9.85;;
34230;SDS011;21574;51.538;-0.084;2022-12-11T17:58:20;14.73;;;10.15;;
34230;SDS011;21574;51.538;-0.084;2022-12-11T18:00:48;16.15;;;9.80;;
34230;SDS011;21574;51.538;-0.084;2022-12-11T18:03:17;14.23;;;9.52;;
34230;SDS011;21574;51.538;-0.084;2022-12-11T18:05:43;16.67;;;9.13;;
34230;SDS011;21574;51.538;-0.084;2022-12-11T18:08:12;14.20;;;9.70;;
34230;SDS011;21574;51.538;-0.084;2022-12-11T18:10:41;15.55;;;9.88;;
34230;SDS011;21574;51.538;-0.084;2022-12-11T18:13:08;13.68;;;10.23;;
34230;SDS011;21574;51.538;-0.084;2022-12-11T18:15:34;12.05;;;9.23;;
34230;SDS011;21574;51.538;-0.084;2022-12-11T18:18:00;13.68;;;9.38;;
34230;SDS011;21574;51.538;-0.084;2022-12-11T18:20:26;13.65;;;9.75;;
34230;SDS011;21574;51.538;-0.084;2022-12-11T18:22:51;13.10;;;9.05;;
34230;SDS011;21574;51.538;-0.084;2022-12-11T18:25:18;12.35;;;9.02;;
34230;SDS011;21574;51.538;-0.084;2022-12-11T18:27:44;12.88;;;9.07;;
34230;SDS011;21574;51.538;-0.084;2022-12-11T18:30:10;13.00;;;9.25;;
34230;SDS011;21574;51.538;-0.084;2022-12-11T18:32:40;15.40;;;9.88;;
34230;SDS011;21574;51.538;-0.084;2022-12-11T18:35:06;19.77;;;13.73;;
34230;SDS011;21574;51.538;-0.084;2022-12-11T18:37:33;17.20;;;12.30;;
34230;SDS011;21574;51.538;-0.084;2022-12-11T18:39:59;16.10;;;11.43;;
34230;SDS011;21574;51.538;-0.084;2022-12-11T18:42:24;17.90;;;11.40;;
34230;SDS011;21574;51.538;-0.084;2022-12-11T18:44:51;19.13;;;11.73;;
34230;SDS011;21574;51.538;-0.084;2022-12-11T18:47:16;15.98;;;10.68;;
34230;SDS011;21574;51.538;-0.084;2022-12-11T18:49:42;15.25;;;10.85;;
34230;SDS011;21574;51.538;-0.084;2022-12-11T18:52:08;15.93;;;10.52;;
34230;SDS011;21574;51.538;-0.084;2022-12-11T18:54:33;16.98;;;11.23;;
34230;SDS011;21574;51.538;-0.084;2022-12-11T18:56:59;18.08;;;9.55;;
34230;SDS011;21574;51.538;-0.084;2022-12-11T18:59:25;16.65;;;9.55;;
34230;SDS011;21574;51.538;-0.084;2022-12-11T19:01:50;16.25;;;10.30;;
34230;SDS011;21574;51.538;-0.084;2022-12-11T19:04:16;15.05;;;9.90;;
34230;SDS011;21574;51.538;-0.084;2022-12-11T19:06:41;16.08;;;10.43;;
34230;SDS011;21574;51.538;-0.084;2022-12-11T19:09:07;15.30;;;9.73;;
34230;SDS011;21574;51.538;-0.084;2022-12-11T19:11:36;18.33;;;10.95;;
34230;SDS011;21574;51.538;-0.084;2022-12-11T19:14:03;16.70;;;9.75;;
34230;SDS011;21574;51.538;-0.084;2022-12-11T19:16:31;15.47;;;10.27;;
34230;SDS011;21574;51.538;-0.084;2022-12-11T19:19:00;12.27;;;9.15;;
34230;SDS011;21574;51.538;-0.084;2022-12-11T19:21:31;13.80;;;9.63;;
34230;SDS011;21574;51.538;-0.084;2022-12-11T19:23:59;17.00;;;9.82;;
34230;SDS011;21574;51.538;-0.084;2022-12-11T19:26:25;13.65;;;10.25;;
34230;SDS011;21574;51.538;-0.084;2022-12-11T19:28:51;14.05;;;9.68;;
34230;SDS011;21574;51.538;-0.084;2022-12-11T19:31:18;13.88;;;9.35;;
34230;SDS011;21574;51.538;-0.084;2022-12-11T19:33:45;13.95;;;9.30;;
34230;SDS011;21574;51.538;-0.084;2022-12-11T19:36:12;11.50;;;8.90;;
34230;SDS011;21574;51.538;-0.084;2022-12-11T19:38:40;12.52;;;9.38;;
34230;SDS011;21574;51.538;-0.084;2022-12-11T19:41:12;11.68;;;8.30;;
34230;SDS011;21574;51.538;-0.084;2022-12-11T19:43:51;13.20;;;8.68;;
34230;SDS011;21574;51.538;-0.084;2022-12-11T19:48:44;13.93;;;9.50;;
34230;SDS011;21574;51.538;-0.084;2022-12-11T19:51:13;11.98;;;8.98;;
34230;SDS011;21574;51.538;-0.084;2022-12-11T19:53:40;13.75;;;9.48;;
34230;SDS011;21574;51.538;-0.084;2022-12-11T19:56:07;12.60;;;8.93;;
34230;SDS011;21574;51.538;-0.084;2022-12-11T19:58:32;10.57;;;7.97;;
34230;SDS011;21574;51.538;-0.084;2022-12-11T20:00:58;10.52;;;8.00;;
34230;SDS011;21574;51.538;-0.084;2022-12-11T20:03:24;12.93;;;8.70;;
34230;SDS011;21574;51.538;-0.084;2022-12-11T20:05:50;13.88;;;7.78;;
34230;SDS011;21574;51.538;-0.084;2022-12-11T20:08:16;12.88;;;8.30;;
34230;SDS011;21574;51.538;-0.084;2022-12-11T20:10:42;9.35;;;7.40;;
34230;SDS011;21574;51.538;-0.084;2022-12-11T20:13:07;11.45;;;7.65;;
34230;SDS011;21574;51.538;-0.084;2022-12-11T20:15:33;12.65;;;7.82;;
34230;SDS011;21574;51.538;-0.084;2022-12-11T20:18:02;11.63;;;7.90;;
34230;SDS011;21574;51.538;-0.084;2022-12-11T20:20:28;9.63;;;7.20;;
34230;SDS011;21574;51.538;-0.084;2022-12-11T20:22:55;9.98;;;7.53;;
34230;SDS011;21574;51.538;-0.084;2022-12-11T20:25:22;10.15;;;7.47;;
34230;SDS011;21574;51.538;-0.084;2022-12-11T20:27:49;11.00;;;8.07;;
34230;SDS011;21574;51.538;-0.084;2022-12-11T20:30:15;9.25;;;6.93;;
34230;SDS011;21574;51.538;-0.084;2022-12-11T20:32:41;8.50;;;6.63;;
34230;SDS011;21574;51.538;-0.084;2022-12-11T20:35:08;10.30;;;6.73;;
34230;SDS011;21574;51.538;-0.084;2022-12-11T20:37:34;9.35;;;6.97;;
34230;SDS011;21574;51.538;-0.084;2022-12-11T20:40:01;9.30;;;6.82;;
34230;SDS011;21574;51.538;-0.084;2022-12-11T20:42:27;8.30;;;6.18;;
34230;SDS011;21574;51.538;-0.084;2022-12-11T20:44:52;8.77;;;6.28;;
34230;SDS011;21574;51.538;-0.084;2022-12-11T20:47:18;7.57;;;6.43;;
34230;SDS011;21574;51.538;-0.084;2022-12-11T20:49:48;7.65;;;5.93;;
34230;SDS011;21574;51.538;-0.084;2022-12-11T20:52:15;9.13;;;6.55;;
34230;SDS011;21574;51.538;-0.084;2022-12-11T20:54:41;8.98;;;6.10;;
34230;SDS011;21574;51.538;-0.084;2022-12-11T20:57:07;7.68;;;6.28;;
34230;SDS011;21574;51.538;-0.084;2022-12-11T20:59:33;10.38;;;6.28;;
34230;SDS011;21574;51.538;-0.084;2022-12-11T21:01:58;8.65;;;5.95;;
34230;SDS011;21574;51.538;-0.084;2022-12-11T21:04:24;6.97;;;5.57;;
34230;SDS011;21574;51.538;-0.084;2022-12-11T21:06:53;7.88;;;5.95;;
34230;SDS011;21574;51.538;-0.084;2022-12-11T21:09:25;8.38;;;6.20;;
34230;SDS011;21574;51.538;-0.084;2022-12-11T21:11:52;7.82;;;6.13;;
34230;SDS011;21574;51.538;-0.084;2022-12-11T21:14:20;8.65;;;6.10;;
34230;SDS011;21574;51.538;-0.084;2022-12-11T21:16:46;8.57;;;6.27;;
34230;SDS011;21574;51.538;-0.084;2022-12-11T21:19:12;8.07;;;5.65;;
34230;SDS011;21574;51.538;-0.084;2022-12-11T21:21:41;8.38;;;6.60;;
34230;SDS011;21574;51.538;-0.084;2022-12-11T21:24:30;8.65;;;6.43;;
34230;SDS011;21574;51.538;-0.084;2022-12-11T21:26:56;8.63;;;6.45;;
34230;SDS011;21574;51.538;-0.084;2022-12-11T21:29:23;7.10;;;6.22;;
34230;SDS011;21574;51.538;-0.084;2022-12-11T21:31:50;8.35;;;6.38;;
34230;SDS011;21574;51.538;-0.084;2022-12-11T21:34:17;7.37;;;6.17;;
34230;SDS011;21574;51.538;-0.084;2022-12-11T21:36:43;8.23;;;6.03;;
34230;SDS011;21574;51.538;-0.084;2022-12-11T21:39:10;8.07;;;6.35;;
34230;SDS011;21574;51.538;-0.084;2022-12-11T21:41:37;7.10;;;5.75;;
34230;SDS011;21574;51.538;-0.084;2022-12-11T21:44:02;7.80;;;6.38;;
34230;SDS011;21574;51.538;-0.084;2022-12-11T21:46:28;8.25;;;6.20;;
34230;SDS011;21574;51.538;-0.084;2022-12-11T21:48:54;8.05;;;6.15;;
34230;SDS011;21574;51.538;-0.084;2022-12-11T21:51:22;7.47;;;6.00;;
34230;SDS011;21574;51.538;-0.084;2022-12-11T21:53:49;8.40;;;6.53;;
34230;SDS011;21574;51.538;-0.084;2022-12-11T21:56:17;8.52;;;6.65;;
34230;SDS011;21574;51.538;-0.084;2022-12-11T21:58:44;7.78;;;5.88;;
34230;SDS011;21574;51.538;-0.084;2022-12-11T22:01:15;8.55;;;5.60;;
34230;SDS011;21574;51.538;-0.084;2022-12-11T22:03:46;7.75;;;6.03;;
34230;SDS011;21574;51.538;-0.084;2022-12-11T22:06:12;9.45;;;6.10;;
34230;SDS011;21574;51.538;-0.084;2022-12-11T22:08:38;8.85;;;5.80;;
34230;SDS011;21574;51.538;-0.084;2022-12-11T22:11:04;9.20;;;6.15;;
34230;SDS011;21574;51.538;-0.084;2022-12-11T22:13:30;7.22;;;5.85;;
34230;SDS011;21574;51.538;-0.084;2022-12-11T22:15:56;8.23;;;5.97;;
34230;SDS011;21574;51.538;-0.084;2022-12-11T22:18:21;7.07;;;5.80;;
34230;SDS011;21574;51.538;-0.084;2022-12-11T22:20:51;7.55;;;5.40;;
34230;SDS011;21574;51.538;-0.084;2022-12-11T22:23:19;8.02;;;5.80;;
34230;SDS011;21574;51.538;-0.084;2022-12-11T22:25:45;6.50;;;5.47;;
34230;SDS011;21574;51.538;-0.084;2022-12-11T22:28:11;6.30;;;4.72;;
34230;SDS011;21574;51.538;-0.084;2022-12-11T22:30:37;6.55;;;5.22;;
34230;SDS011;21574;51.538;-0.084;2022-12-11T22:33:03;7.35;;;5.25;;
34230;SDS011;21574;51.538;-0.084;2022-12-11T22:35:29;6.88;;;5.05;;
34230;SDS011;21574;51.538;-0.084;2022-12-11T22:37:54;7.03;;;5.05;;
34230;SDS011;21574;51.538;-0.084;2022-12-11T22:40:20;7.13;;;5.18;;
34230;SDS011;21574;51.538;-0.084;2022-12-11T22:42:47;5.55;;;4.50;;
34230;SDS011;21574;51.538;-0.084;2022-12-11T22:45:12;8.23;;;4.63;;
34230;SDS011;21574;51.538;-0.084;2022-12-11T22:47:38;5.95;;;4.88;;
34230;SDS011;21574;51.538;-0.084;2022-12-11T22:50:04;6.70;;;4.70;;
34230;SDS011;21574;51.538;-0.084;2022-12-11T22:52:31;7.18;;;4.82;;
34230;SDS011;21574;51.538;-0.084;2022-12-11T22:54:57;5.68;;;5.03;;
34230;SDS011;21574;51.538;-0.084;2022-12-11T22:57:22;4.53;;;4.03;;
34230;SDS011;21574;51.538;-0.084;2022-12-11T22:59:48;5.90;;;4.70;;
34230;SDS011;21574;51.538;-0.084;2022-12-11T23:02:14;5.50;;;4.57;;
34230;SDS011;21574;51.538;-0.084;2022-12-11T23:04:40;6.57;;;4.65;;
34230;SDS011;21574;51.538;-0.084;2022-12-11T23:07:05;5.50;;;4.30;;
34230;SDS011;21574;51.538;-0.084;2022-12-11T23:09:31;6.22;;;4.35;;
34230;SDS011;21574;51.538;-0.084;2022-12-11T23:11:57;6.13;;;4.88;;
34230;SDS011;21574;51.538;-0.084;2022-12-11T23:14:24;5.28;;;4.35;;
34230;SDS011;21574;51.538;-0.084;2022-12-11T23:16:49;5.97;;;4.20;;
34230;SDS011;21574;51.538;-0.084;2022-12-11T23:19:15;4.95;;;4.03;;
34230;SDS011;21574;51.538;-0.084;2022-12-11T23:21:41;4.63;;;3.97;;
34230;SDS011;21574;51.538;-0.084;2022-12-11T23:24:08;4.93;;;3.67;;
34230;SDS011;21574;51.538;-0.084;2022-12-11T23:26:34;4.80;;;4.10;;
34230;SDS011;21574;51.538;-0.084;2022-12-11T23:29:00;4.93;;;3.95;;
34230;SDS011;21574;51.538;-0.084;2022-12-11T23:31:26;4.53;;;3.67;;
34230;SDS011;21574;51.538;-0.084;2022-12-11T23:33:52;5.45;;;3.53;;
34230;SDS011;21574;51.538;-0.084;2022-12-11T23:36:18;4.22;;;3.83;;
34230;SDS011;21574;51.538;-0.084;2022-12-11T23:38:44;3.97;;;3.10;;
34230;SDS011;21574;51.538;-0.084;2022-12-11T23:41:10;4.70;;;3.63;;
34230;SDS011;21574;51.538;-0.084;2022-12-11T23:43:38;5.60;;;3.90;;
34230;SDS011;21574;51.538;-0.084;2022-12-11T23:46:06;4.07;;;3.40;;
34230;SDS011;21574;51.538;-0.084;2022-12-11T23:48:34;4.70;;;3.70;;
34230;SDS011;21574;51.538;-0.084;2022-12-11T23:51:00;4.63;;;3.45;;
34230;SDS011;21574;51.538;-0.084;2022-12-11T23:55:52;4.90;;;3.30;;
34230;SDS011;21574;51.538;-0.084;2022-12-11T23:58:18;3.72;;;3.30;;
